Terminal Aerodrome Forecast
Issued by NWS Atlanta, GA

Home | Current Version | Previous Version | Text Only | Print | Product List | Glossary On
Versions: 1 2 3 4 5 6 7 8 9 10 11 12 13 14 15 16 17 18 19 20 21 22 23 24 25 26 27 28 29 30 31 32
000
FTUS42 KFFC 020525
TAFAHN
TAF
KAHN 020525Z 0206/0306 20004KT 3SM BR BKN003 OVC012
     FM020800 00000KT 1SM -DZ OVC004
     FM021500 27004KT 4SM -DZ OVC008
     FM021700 28005KT P6SM OVC012
     FM022200 29004KT P6SM OVC025
     FM030200 00000KT P6SM OVC012=

USA.gov is the U.S. government's official web portal to all federal, state and local government web resources and services.